Flight Track Log - Related Links

Times and Time Zones

All times are in EDT time to prevent confusion due to time zone crossing. See the KYE504 flight status page for this flight to view local times or setup timezone preferences in your user account.

Time Position Orientation Groundspeed Altitude Reporting Facility
EDT Latitude Longitude Course Direction KTS MPH feet Rate Location/Type
Mon 10:30:51 AM 24.9358 -79.7283 326° Northwest 493 567 31,900  Level Miami Center
Mon 10:31:53 AM 25.0497 -79.8092 327° Northwest 492 566 31,900  Level Miami Center
Mon 10:32:55 AM 25.1619 -79.8908 327° Northwest 489 563 31,900  Level Miami Center
Mon 10:33:57 AM 25.2406 -80.0097 306° West 485 558 31,900  Level Miami Center
Mon 10:34:59 AM 25.3050 -80.1414 298° West 485 558 31,900  Level Miami Center
Mon 10:36:00 AM 25.0248 -79.7989 326° Northwest  Level FlightAware Approximate
Mon 10:36:01 AM 25.3708 -80.2733 299° West 489 563 31,900  Level Miami Center
Mon 10:37:03 AM 25.4361 -80.4072 298° West 489 563 31,900 48 Level Miami Center
Mon 10:38:05 AM 25.5186 -80.5711 299° West 489 563 32,000 48 Climbing Miami Center
Mon 10:39:07 AM 25.5853 -80.7058 299° West 496 571 32,000 -48 Level Miami Center
Mon 10:40:09 AM 25.6525 -80.8411 299° West 495 570 31,900 -48 Descending Miami Center
Mon 10:41:11 AM 25.7122 -80.9758 296° West 488 562 31,900  Level Miami Center
Mon 10:42:13 AM 25.7722 -81.1089 297° West 484 557 31,900  Level Miami Center
Mon 10:43:15 AM 25.8319 -81.2428 296° West 484 557 31,900  Level Miami Center
Mon 10:44:17 AM 25.8925 -81.3781 296° West 485 558 31,900 48 Level Miami Center
Mon 10:45:19 AM 25.9531 -81.5133 296° West 488 562 32,000  Climbing Miami Center
Mon 10:46:21 AM 26.0242 -81.6769 296° West 491 565 31,900 -48 Descending Miami Center
Mon 10:47:23 AM 26.0856 -81.8144 296° West 493 567 31,900  Level Miami Center
Mon 10:48:25 AM 26.1447 -81.9506 296° West 490 564 31,900  Level Miami Center
Mon 10:49:27 AM 26.2106 -82.1006 296° West 490 564 31,900  Level Miami Center
Mon 10:50:29 AM 26.2711 -82.2364 296° West 490 564 31,900  Level Miami Center
Mon 10:51:31 AM 26.3308 -82.3733 296° West 490 564 31,900 48 Level Miami Center
Mon 10:52:33 AM 26.3900 -82.5092 296° West 488 562 32,000  Climbing Miami Center
Mon 10:53:35 AM 26.4483 -82.6461 295° West 487 560 31,900 194 Descending Miami Center
Mon 10:54:37 AM 26.5067 -82.7797 296° West 484 557 32,400 968 Climbing Miami Center
Mon 10:55:39 AM 26.5769 -82.9442 296° West 485 558 33,900 726 Climbing Miami Center
Mon 10:56:41 AM 26.6347 -83.0769 296° West 480 552 33,900  Level Miami Center
Mon 10:57:43 AM 26.6917 -83.2108 295° West 478 550 33,900  Level Miami Center
Mon 10:58:45 AM 26.7483 -83.3447 295° West 477 549 33,900  Level Miami Center
Mon 10:59:47 AM 26.8067 -83.4814 296° West 482 555 33,900  Level Miami Center
Mon 11:00:49 AM 26.8644 -83.6161 296° West 482 555 33,900  Level Miami Center
Mon 11:01:51 AM 26.9206 -83.7517 295° West 481 554 33,900  Level Miami Center
Mon 11:02:53 AM 26.9906 -83.9164 296° West 483 556 33,900  Level Miami Center
Mon 11:03:55 AM 27.0478 -84.0525 295° West 483 556 33,900 48 Level Miami Center
Mon 11:04:57 AM 27.1044 -84.1894 295° West 483 556 34,000  Climbing Miami Center
Mon 11:05:59 AM 27.1617 -84.3261 295° West 484 557 33,900 -48 Descending Miami Center
Mon 11:07:01 AM 27.2186 -84.4619 295° West 483 556 33,900  Level Miami Center
Mon 11:08:03 AM 27.2739 -84.5983 295° West 482 555 33,900  Level Miami Center
Mon 11:09:05 AM 27.3408 -84.7603 295° West 480 552 33,900  Level Miami Center
Mon 11:10:07 AM 27.3969 -84.8961 295° West 479 551 33,900  Level Miami Center
Mon 11:11:09 AM 27.4528 -85.0311 295° West 478 550 33,900  Level Miami Center
Mon 11:12:11 AM 27.5081 -85.1681 294° West 478 550 33,900  Level Miami Center
Mon 11:13:13 AM 27.5644 -85.3047 295° West 480 552 33,900 48 Level Miami Center
Mon 11:14:15 AM 27.6211 -85.4439 295° West 482 555 34,000  Climbing Miami Center
Mon 11:15:22 AM 27.6911 -85.6272 293° West 491 565 33,900 -47 Descending Jacksonville Center
Mon 11:16:22 AM 27.7467 -85.7600 295° West 481 554 33,900  Level Jacksonville Center
Mon 11:17:22 AM 27.8019 -85.9022 294° West 481 554 33,900  Level Jacksonville Center
Mon 11:18:22 AM 27.8569 -86.0353 295° West 481 554 33,900  Level Jacksonville Center
Mon 11:19:22 AM 27.9122 -86.1683 295° West 481 554 33,900  Level Jacksonville Center
Mon 11:20:22 AM 27.9669 -86.3111 293° West 481 554 33,900  Level Jacksonville Center
Mon 11:21:22 AM 28.0194 -86.4447 294° West 487 560 33,900  Level Jacksonville Center
Mon 11:22:22 AM 28.0781 -86.5878 295° West 482 555 33,900  Level Jacksonville Center
Mon 11:23:22 AM 28.1286 -86.7142 294° West 482 555 33,900  Level Jacksonville Center
Mon 11:24:22 AM 28.1847 -86.8578 294° West 488 562 33,900  Level Jacksonville Center
Mon 11:25:22 AM 28.2369 -86.9892 294° West 474 545 33,900  Level Jacksonville Center
Mon 11:26:22 AM 28.2869 -87.1233 293° West 465 535 33,900  Level Jacksonville Center
Mon 11:27:00 AM 28.3214 -87.2031 296° West 472 543 33,900  Level Houston Center
Mon 11:28:02 AM 28.3753 -87.3408 294° West 477 549 33,900  Level Houston Center
Mon 11:29:05 AM 28.4283 -87.4792 294° West 477 549 33,900  Level Houston Center
Mon 11:30:07 AM 28.4814 -87.6139 294° West 472 543 33,900  Level Houston Center
Mon 11:31:09 AM 28.5439 -87.7778 293° West 471 542 33,900  Level Houston Center
Mon 11:32:11 AM 28.5969 -87.9153 294° West 471 542 33,900  Level Houston Center
Mon 11:33:13 AM 28.6486 -88.0528 293° West 474 545 33,900  Level Houston Center
Mon 11:34:15 AM 28.7033 -88.2042 292° West 474 545 33,900  Level Houston Center
Mon 11:35:18 AM 28.7650 -88.3367 298° West 475 547 33,900  Level Houston Center
Mon 11:36:20 AM 28.8425 -88.4597 306° West 475 547 33,900 48 Level Houston Center
Mon 11:37:22 AM 28.9194 -88.5836 305° West 476 548 34,000  Climbing Houston Center
Mon 11:38:24 AM 28.9967 -88.7081 305° West 479 551 33,900 -48 Descending Houston Center
Mon 11:39:26 AM 29.0881 -88.8572 305° West 479 551 33,900  Level Houston Center
Mon 11:40:29 AM 29.1661 -88.9814 306° West 479 551 33,900  Level Houston Center
Mon 11:41:31 AM 29.2428 -89.1075 305° West 480 552 33,900  Level Houston Center
Mon 11:42:33 AM 29.3208 -89.2311 306° West 480 552 33,900  Level Houston Center
Mon 11:43:35 AM 29.3961 -89.3531 305° West 473 544 33,900  Level Houston Center
Mon 11:44:37 AM 29.4719 -89.4758 305° West 471 542 33,900  Level Houston Center
Mon 11:45:40 AM 29.5636 -89.6244 305° West 472 543 33,900  Level Houston Center
Mon 11:46:42 AM 29.6389 -89.7497 305° West 474 545 33,900  Level Houston Center
Mon 11:47:44 AM 29.7158 -89.8758 305° West 474 545 33,900  Level Houston Center
Mon 11:48:46 AM 29.7914 -90.0008 305° West 475 547 33,900  Level Houston Center
Mon 11:49:48 AM 29.8669 -90.1258 305° West 475 547 33,900 48 Level Houston Center
Mon 11:50:50 AM 29.9431 -90.2511 305° West 474 545 34,000  Climbing Houston Center
Mon 11:51:53 AM 30.0325 -90.4003 305° West 472 543 33,900 -48 Descending Houston Center
Mon 11:52:55 AM 30.1058 -90.5244 304° West 470 541 33,900  Level Houston Center
Mon 11:53:57 AM 30.1778 -90.6478 304° West 465 535 33,900  Level Houston Center
Mon 11:54:59 AM 30.2517 -90.7714 305° West 465 535 33,900  Level Houston Center
Mon 11:56:01 AM 30.3267 -90.8978 305° West 472 543 33,900  Level Houston Center
Mon 11:57:03 AM 30.4031 -91.0242 305° West 477 549 33,900  Level Houston Center
Mon 11:58:06 AM 30.4919 -91.1767 304° West 477 549 33,900  Level Houston Center
Mon 11:59:08 AM 30.5658 -91.3025 304° West 476 548 33,900 48 Level Houston Center
Mon 12:00:10 PM 30.6350 -91.4219 304° West 476 548 34,000 48 Climbing Houston Center
Mon 12:01:13 PM 30.7089 -91.5483 304° West 476 548 34,000  Level Houston Center
Mon 12:02:15 PM 30.7969 -91.7017 304° West 475 547 34,000  Level Houston Center
Mon 12:03:17 PM 30.8706 -91.8281 304° West 474 545 34,000 -48 Level Houston Center
Mon 12:04:19 PM 30.9436 -91.9539 304° West 474 545 33,900 -48 Descending Houston Center
Mon 12:05:21 PM 31.0233 -92.0947 303° West 469 540 33,900  Level Houston Center
Mon 12:06:23 PM 31.0978 -92.2203 305° West 469 540 33,900  Level Houston Center
Mon 12:07:26 PM 31.1661 -92.3436 303° West 464 534 33,900  Level Houston Center
Mon 12:08:28 PM 31.2369 -92.4694 303° West 464 534 33,900 48 Level Houston Center
Mon 12:09:30 PM 31.3094 -92.5989 303° West 472 543 34,000 48 Climbing Houston Center
Mon 12:10:32 PM 31.3894 -92.7547 301° West 471 542 34,000  Level Houston Center
Mon 12:11:34 PM 31.4581 -92.8825 302° West 470 541 34,000 -48 Level Houston Center
Mon 12:12:37 PM 31.5253 -93.0136 301° West 470 541 33,900 -48 Descending Houston Center
Mon 12:13:39 PM 31.5919 -93.1417 301° West 469 540 33,900  Level Houston Center
Mon 12:14:41 PM 31.6661 -93.2842 301° West 468 539 33,900  Level Houston Center
Mon 12:15:43 PM 31.7272 -93.4003 302° West 464 534 33,900 48 Level Houston Center
Mon 12:16:46 PM 31.8078 -93.5553 301° West 464 534 34,000 45 Climbing Houston Center
Mon 12:17:56 PM 31.8894 -93.7111 302° West 466 536 34,000  Level Fort Worth Center
Mon 12:18:58 PM 31.9500 -93.8261 302° West 467 537 34,000 -48 Level Fort Worth Center
Mon 12:20:00 PM 32.0317 -93.9839 301° West 469 540 33,900 -48 Descending Fort Worth Center
Mon 12:21:03 PM 32.0992 -94.1164 301° West 471 542 33,900  Level Fort Worth Center
Mon 12:22:05 PM 32.1556 -94.2558 296° West 472 543 33,900  Level Fort Worth Center
Mon 12:23:07 PM 32.2028 -94.4125 290° West 476 548 33,900  Level Fort Worth Center
Mon 12:24:09 PM 32.2486 -94.5594 290° West 476 548 33,900 48 Level Fort Worth Center
Mon 12:25:11 PM 32.2956 -94.7078 291° West 480 552 34,000 48 Climbing Fort Worth Center
Mon 12:26:13 PM 32.3433 -94.8586 291° West 486 559 34,000 -48 Level Fort Worth Center
Mon 12:27:15 PM 32.4075 -95.0208 295° West 475 547 33,900 -48 Descending Fort Worth Center
Mon 12:28:17 PM 32.4600 -95.1539 295° West 451 519 33,900  Level Fort Worth Center
Mon 12:29:19 PM 32.5161 -95.2975 295° West 453 521 33,900  Level Fort Worth Center
Mon 12:30:21 PM 32.5553 -95.4289 290° West 452 520 33,900  Level Fort Worth Center
Mon 12:31:23 PM 32.5661 -95.5772 275° West 455 524 33,900  Level Fort Worth Center
Mon 12:32:25 PM 32.6131 -95.7514 288° West 462 532 33,900  Level Fort Worth Center
Mon 12:33:27 PM 32.6581 -95.8967 290° West 472 543 33,900  Level Fort Worth Center
Mon 12:34:29 PM 32.7028 -96.0469 290° West 478 550 33,900  Level Fort Worth Center
Mon 12:35:32 PM 32.7456 -96.1953 289° West 474 545 33,900  Level Fort Worth Center
Mon 12:36:34 PM 32.7883 -96.3422 289° West 472 543 33,900  Level Fort Worth Center
Mon 12:37:36 PM 32.8328 -96.4922 289° West 484 557 33,900  Level Fort Worth Center
Mon 12:38:38 PM 32.8886 -96.6728 290° West 484 557 33,900  Level Fort Worth Center
Mon 12:39:40 PM 32.9319 -96.8219 289° West 483 556 33,900  Level Fort Worth Center
Mon 12:40:42 PM 32.9742 -96.9681 289° West 472 543 33,900  Level Fort Worth Center
Mon 12:41:44 PM 33.0172 -97.1183 289° West 483 556 33,900  Level Fort Worth Center
Mon 12:42:46 PM 33.0675 -97.2961 289° West 496 571 33,900  Level Fort Worth Center
Mon 12:43:48 PM 33.1089 -97.4447 288° West 489 563 33,900  Level Fort Worth Center
Mon 12:44:50 PM 33.1503 -97.5950 288° West 484 557 33,900  Level Fort Worth Center
Mon 12:45:53 PM 33.1914 -97.7464 288° West 483 556 33,900  Level Fort Worth Center
Mon 12:46:55 PM 33.2333 -97.8986 288° West 483 556 33,900  Level Fort Worth Center
Mon 12:47:57 PM 33.2844 -98.0808 289° West 483 556 33,900  Level Fort Worth Center
Mon 12:48:59 PM 33.3300 -98.2375 289° West 488 562 33,900 48 Level Fort Worth Center
Mon 12:50:01 PM 33.3750 -98.3997 288° West 489 563 34,000 48 Climbing Fort Worth Center
Mon 12:51:03 PM 33.4172 -98.5569 288° West 490 564 34,000  Level Fort Worth Center
Mon 12:52:05 PM 33.4611 -98.7117 289° West 490 564 34,000 -48 Level Fort Worth Center
Mon 12:53:07 PM 33.5022 -98.8633 288° West 485 558 33,900 -48 Descending Fort Worth Center
Mon 12:54:09 PM 33.5433 -99.0136 288° West 481 554 33,900  Level Fort Worth Center
Mon 12:55:12 PM 33.5828 -99.1636 288° West 479 551 33,900  Level Fort Worth Center
Mon 12:56:14 PM 33.6300 -99.3436 288° West 473 544 33,900 48 Level Fort Worth Center
Mon 12:57:16 PM 33.6706 -99.4931 288° West 474 545 34,000 48 Climbing Fort Worth Center
Mon 12:58:18 PM 33.7094 -99.6461 287° West 477 549 34,000  Level Fort Worth Center
Mon 12:59:20 PM 33.7489 -99.7992 287° West 481 554 34,000 -48 Level Fort Worth Center
Mon 01:00:22 PM 33.7897 -99.9483 288° West 473 544 33,900 -48 Descending Fort Worth Center
Mon 01:01:24 PM 33.8353 -100.1278 287° West 470 541 33,900  Level Fort Worth Center
Mon 01:02:27 PM 33.8739 -100.2753 288° West 469 540 33,900 48 Level Fort Worth Center
Mon 01:03:29 PM 33.9119 -100.4258 287° West 467 537 34,000 48 Climbing Fort Worth Center
Mon 01:04:31 PM 33.9497 -100.5761 287° West 467 537 34,000  Level Fort Worth Center
Mon 01:05:33 PM 33.9872 -100.7244 287° West 467 537 34,000 -48 Level Fort Worth Center
Mon 01:06:36 PM 34.0233 -100.8750 286° West 467 537 33,900 -48 Descending Fort Worth Center
Mon 01:07:38 PM 34.0667 -101.0508 287° West 466 536 33,900  Level Fort Worth Center
Mon 01:08:40 PM 34.1022 -101.1942 287° West 457 526 33,900  Level Fort Worth Center
Mon 01:09:42 PM 34.1378 -101.3392 287° West 455 524 33,900 48 Level Fort Worth Center
Mon 01:10:44 PM 34.1744 -101.4875 287° West 455 524 34,000 48 Climbing Fort Worth Center
Mon 01:11:46 PM 34.2097 -101.6342 286° West 455 524 34,000 484 Level Fort Worth Center
Mon 01:12:48 PM 34.2525 -101.8111 286° West 455 524 35,000 960 Climbing Fort Worth Center
Mon 01:13:51 PM 34.2883 -101.9586 286° West 455 524 36,000 480 Climbing Fort Worth Center
Mon 01:14:53 PM 34.3228 -102.1067 286° West 455 524 36,000  Level Fort Worth Center
Mon 01:15:55 PM 34.3578 -102.2528 286° West 455 524 36,000  Level Fort Worth Center
Mon 01:16:57 PM 34.3928 -102.3983 286° West 454 522 36,000  Level Fort Worth Center
Mon 01:17:32 PM 34.4131 -102.4875 285° West 454 522 36,000  Level Albuquerque Center
Mon 01:18:34 PM 34.4475 -102.6328 286° West 454 522 36,000  Level Albuquerque Center
Mon 01:19:36 PM 34.4814 -102.7794 286° West 454 522 36,000 -48 Level Albuquerque Center
Mon 01:20:38 PM 34.4911 -102.9575 274° West 449 517 35,900 -48 Descending Albuquerque Center
Mon 01:21:40 PM 34.4858 -103.0919 267° West 449 517 35,900  Level Albuquerque Center
Mon 01:22:42 PM 34.4800 -103.2689 268° West 449 517 35,900  Level Albuquerque Center
Mon 01:23:44 PM 34.4742 -103.4228 267° West 449 517 35,900 48 Level Albuquerque Center
Mon 01:24:46 PM 34.4683 -103.5778 267° West 450 518 36,000 48 Climbing Albuquerque Center
Mon 01:25:48 PM 34.4619 -103.7333 267° West 453 521 36,000  Level Albuquerque Center
Mon 01:26:50 PM 34.4556 -103.8903 267° West 456 525 36,000  Level Albuquerque Center
Mon 01:27:52 PM 34.4481 -104.0475 267° West 458 527 36,000 -48 Level Albuquerque Center
Mon 01:28:54 PM 34.4414 -104.2019 267° West 459 528 35,900 -48 Descending Albuquerque Center
Mon 01:29:56 PM 34.4344 -104.3569 267° West 457 526 35,900  Level Albuquerque Center
Mon 01:30:58 PM 34.4253 -104.5344 266° West 453 521 35,900 48 Level Albuquerque Center
Mon 01:32:00 PM 34.4186 -104.6892 267° West 453 521 36,000 48 Climbing Albuquerque Center
Mon 01:33:02 PM 34.4117 -104.8447 267° West 453 521 36,000  Level Albuquerque Center
Mon 01:34:04 PM 34.4031 -105.0014 266° West 458 527 36,000  Level Albuquerque Center
Mon 01:35:06 PM 34.3947 -105.1569 266° West 459 528 36,000  Level Albuquerque Center
Mon 01:36:08 PM 34.3867 -105.3133 266° West 459 528 36,000 -48 Level Albuquerque Center
Mon 01:37:10 PM 34.3775 -105.4658 266° West 455 524 35,900 -48 Descending Albuquerque Center
Mon 01:38:12 PM 34.3694 -105.6192 266° West 455 524 35,900  Level Albuquerque Center
Mon 01:39:14 PM 34.3689 -105.7967 270° West 453 521 35,900  Level Albuquerque Center
Mon 01:40:16 PM 34.3731 -105.9481 272° West 450 518 35,900 48 Level Albuquerque Center
Mon 01:41:18 PM 34.3778 -106.1017 272° West 450 518 36,000 48 Climbing Albuquerque Center
Mon 01:42:20 PM 34.3831 -106.2647 272° West 461 531 36,000  Level Albuquerque Center
Mon 01:43:23 PM 34.3867 -106.4194 272° West 464 534 36,000 -48 Level Albuquerque Center
Mon 01:44:25 PM 34.3908 -106.5828 272° West 456 525 35,900 -48 Descending Albuquerque Center
Mon 01:45:27 PM 34.3947 -106.7322 272° West 449 517 35,900  Level Albuquerque Center
Mon 01:46:29 PM 34.3989 -106.8953 272° West 449 517 35,900 48 Level Albuquerque Center
Mon 01:47:31 PM 34.4025 -107.0467 272° West 449 517 36,000 48 Climbing Albuquerque Center
Mon 01:48:33 PM 34.4047 -107.2078 271° West 452 520 36,000  Level Albuquerque Center
Mon 01:49:35 PM 34.4061 -107.3608 271° West 452 520 36,000 -48 Level Albuquerque Center
Mon 01:50:37 PM 34.4089 -107.5133 271° West 452 520 35,900 -48 Descending Albuquerque Center
Mon 01:51:39 PM 34.4103 -107.6672 271° West 453 521 35,900 32 Level Albuquerque Center
Mon 01:53:43 PM 34.4161 -107.9781 271° West 456 525 36,000  Climbing Albuquerque Center
Mon 01:54:45 PM 34.4181 -108.1475 271° West 455 524 35,900 -49 Descending Albuquerque Center
Mon 01:55:46 PM 34.4214 -108.3083 271° West 452 520 35,900  Level Albuquerque Center
Mon 01:56:48 PM 34.4222 -108.4614 270° West 454 522 35,900 48 Level Albuquerque Center
Mon 01:57:50 PM 34.4236 -108.6100 271° West 453 521 36,000 48 Climbing Albuquerque Center
Mon 01:58:52 PM 34.4250 -108.7808 271° West 453 521 36,000  Level Albuquerque Center
Mon 01:59:54 PM 34.4258 -108.9275 270° West 453 521 36,000  Level Albuquerque Center
Mon 02:00:56 PM 34.4269 -109.0747 271° West 453 521 36,000  Level Albuquerque Center
Mon 02:01:57 PM 34.4250 -109.2447 269° West 453 521 36,000  Level Albuquerque Center
Mon 02:02:59 PM 34.4175 -109.3911 266° West 453 521 36,000  Level Albuquerque Center
Mon 02:04:01 PM 34.4106 -109.5622 267° West 453 521 36,000 -48 Level Albuquerque Center
Mon 02:05:03 PM 34.4053 -109.7108 268° West 454 522 35,900  Descending Albuquerque Center
Mon 02:06:05 PM 34.3981 -109.8803 267° West 454 522 36,000 48 Climbing Albuquerque Center
Mon 02:07:07 PM 34.3928 -110.0258 268° West 454 522 36,000  Level Albuquerque Center
Mon 02:08:08 PM 34.3847 -110.1967 267° West 454 522 36,000  Level Albuquerque Center
Mon 02:09:10 PM 34.3783 -110.3414 267° West 453 521 36,000 -48 Level Albuquerque Center
Mon 02:10:12 PM 34.3731 -110.4889 268° West 452 520 35,900 -48 Descending Albuquerque Center
Mon 02:11:14 PM 34.3711 -110.6386 269° West 451 519 35,900  Level Albuquerque Center
Mon 02:12:16 PM 34.3619 -110.7847 266° West 443 510 35,900  Level Albuquerque Center
Mon 02:13:17 PM 34.3597 -110.9331 269° West 443 510 35,900 49 Level Albuquerque Center
Mon 02:14:19 PM 34.3528 -111.1114 267° West 443 510 36,000 48 Climbing Albuquerque Center
Mon 02:15:21 PM 34.3483 -111.2608 268° West 445 512 36,000  Level Albuquerque Center
Mon 02:16:23 PM 34.3433 -111.4106 268° West 445 512 36,000 -49 Level Albuquerque Center
Mon 02:17:24 PM 34.3381 -111.5603 268° West 446 513 35,900  Descending Albuquerque Center
Mon 02:18:26 PM 34.3328 -111.7094 268° West 447 514 36,000  Climbing Albuquerque Center
Mon 02:19:28 PM 34.3258 -111.8872 267° West 447 514 35,900 -48 Descending Albuquerque Center
Mon 02:20:30 PM 34.3203 -112.0339 267° West 447 514 35,900  Level Albuquerque Center
Mon 02:21:31 PM 34.3136 -112.1800 267° West 446 513 35,900  Level Albuquerque Center
Mon 02:22:33 PM 34.3075 -112.3272 267° West 444 511 35,900 48 Level Albuquerque Center
Mon 02:23:35 PM 34.3019 -112.4747 267° West 444 511 36,000 48 Climbing Albuquerque Center
Mon 02:24:37 PM 34.2953 -112.6228 267° West 444 511 36,000  Level Albuquerque Center
Mon 02:25:38 PM 34.2875 -112.8008 267° West 444 511 36,000  Level Albuquerque Center
Mon 02:26:40 PM 34.2803 -112.9503 267° West 444 511 36,000  Level Albuquerque Center
Mon 02:27:42 PM 34.2733 -113.1011 267° West 446 513 36,000  Level Albuquerque Center
Mon 02:28:43 PM 34.2650 -113.2514 266° West 446 513 36,000 -49 Level Albuquerque Center
Mon 02:29:45 PM 34.2572 -113.4019 266° West 448 516 35,900 -48 Descending Albuquerque Center
Mon 02:30:47 PM 34.2494 -113.5531 266° West 451 519 35,900  Level Albuquerque Center
Mon 02:31:49 PM 34.2381 -113.7286 266° West 451 519 35,900 49 Level Albuquerque Center
Mon 02:32:50 PM 34.2297 -113.8811 266° West 453 521 36,000 49 Climbing Albuquerque Center
Mon 02:33:52 PM 34.2222 -114.0325 267° West 453 521 36,000 -50 Level Albuquerque Center
Mon 02:34:50 PM 34.2144 -114.1733 266° West 454 522 35,900 -50 Descending Los Angeles Center
Mon 02:35:52 PM 34.2056 -114.3183 266° West 440 506 35,900  Level Los Angeles Center
Mon 02:36:55 PM 34.1947 -114.4928 266° West 438 504 35,900  Level Los Angeles Center
Mon 02:37:57 PM 34.1861 -114.6375 266° West 438 504 35,900  Level Los Angeles Center
Mon 02:38:59 PM 34.1772 -114.7817 266° West 436 502 35,900  Level Los Angeles Center
Mon 02:40:01 PM 34.1686 -114.9269 266° West 435 501 35,900  Level Los Angeles Center
Mon 02:41:03 PM 34.1600 -115.0714 266° West 435 501 35,900  Level Los Angeles Center
Mon 02:42:06 PM 34.1492 -115.2436 266° West 432 497 35,900  Level Los Angeles Center
Mon 02:43:08 PM 34.1392 -115.3856 265° West 431 496 35,900  Level Los Angeles Center
Mon 02:44:10 PM 34.1292 -115.5281 265° West 429 494 35,900  Level Los Angeles Center
Mon 02:45:12 PM 34.1189 -115.6708 265° West 429 494 35,900 -1,016 Level Los Angeles Center
Mon 02:46:14 PM 34.1078 -115.8136 265° West 429 494 33,800 -2,832 Descending Los Angeles Center
Mon 02:47:17 PM 34.0783 -115.9856 258° West 435 501 30,000 -2,736 Descending Los Angeles Center
Mon 02:48:19 PM 34.0581 -116.1281 260° West 435 501 28,100 -1,887 Descending Los Angeles Center
Mon 02:49:21 PM 34.0369 -116.2628 259° West 424 488 26,100 -1,887 Descending Los Angeles Center
Mon 02:50:23 PM 34.0175 -116.3931 260° West 406 467 24,200 -1,935 Descending Los Angeles Center
Mon 02:51:25 PM 34.0006 -116.5197 261° West 394 453 22,100 -2,064 Descending Los Angeles Center
Mon 02:52:28 PM 33.9878 -116.6708 264° West 386 444 19,900 -1,920 Descending Los Angeles Center
Mon 02:53:30 PM 33.9769 -116.7925 264° West 375 432 18,100 -1,452 Descending Los Angeles Center
Mon 02:54:32 PM 33.9669 -116.9117 264° West 367 422 16,900 -581 Descending Los Angeles Center
Mon 02:55:34 PM 33.9592 -117.0292 265° West 361 415 16,900 -194 Level Los Angeles Center
Mon 02:56:36 PM 33.9500 -117.1456 265° West 357 411 16,500 -912 Descending Los Angeles Center
Mon 02:57:39 PM 33.9403 -117.2633 264° West 355 409 15,000 -1,584 Descending Los Angeles Center
Mon 02:58:41 PM 33.9378 -117.3994 269° West 346 398 13,200 -1,610 Descending Los Angeles Center
Mon 02:59:42 PM 33.9833 -117.5000 299° West 328 377 11,700 -1,587 Descending Southern California TRACON
Mon 03:00:42 PM 34.0167 -117.6000 292° West 343 395 10,000 -850 Descending Southern California TRACON
Mon 03:01:42 PM 34.0000 -117.7000 259° West 284 327 10,000 -400 Level Southern California TRACON
Mon 03:02:42 PM 34.0000 -117.8000 270° West 286 329 9,200 -1,000 Descending Southern California TRACON
Mon 03:03:42 PM 33.9833 -117.8833 256° West 285 328 8,000 -900 Descending Southern California TRACON
Mon 03:04:42 PM 33.9833 -117.9667 270° West 234 269 7,400 -800 Descending Southern California TRACON
Mon 03:05:42 PM 33.9667 -118.0333 253° West 201 231 6,400 -1,211 Descending Southern California TRACON
Mon 03:06:36 PM 33.9667 -118.1000 270° West 200 230 5,100 -1,263 Descending Southern California TRACON
Mon 03:07:36 PM 33.9667 -118.1667 270° West 174 200 4,000 -1,200 Descending Southern California TRACON
Mon 03:08:36 PM 33.9500 -118.2167 248° West 179 206 2,700 -1,100 Descending Southern California TRACON
Mon 03:09:36 PM 33.9500 -118.2833 270° West 167 192 1,800 -900 Descending Southern California TRACON
Mon 03:10:36 PM 33.9500 -118.3333 270° West 164 189 900 -791 Descending Southern California TRACON
Mon 03:11:07 PM 33.9397 -118.3567 242° Southwest 164 189 600 14,903 Descending Los Angeles Center
Mon 03:12:09 PM 33.9347 -118.4067 263° West 161 185 24,000 22,645 Climbing Los Angeles Center
Mon 03:14:00 PM 33.9333 -118.4000 270° West  Level FlightAware Approximate

Login

Don't have an account? Register now (free) for customized features, flight alerts, and more!